createdAt,value
2019-04-03T00:00:27.585Z,512.30
2019-04-03T00:05:31.307Z,530.10
2019-04-03T00:10:37.369Z,544.67
2019-04-03T00:15:40.570Z,1011.13
2019-04-03T00:20:44.401Z,1517.10
2019-04-03T00:25:52.802Z,916.13
2019-04-03T00:30:56.864Z,1135.00
2019-04-03T00:36:00.743Z,1276.30
2019-04-03T00:41:04.557Z,1266.97
2019-04-03T00:46:08.335Z,1686.90
2019-04-03T00:51:12.097Z,1534.57
2019-04-03T00:56:16.943Z,1724.60
2019-04-03T01:01:20.681Z,1937.23
2019-04-03T01:06:24.470Z,1990.43
2019-04-03T01:11:30.149Z,1994.10
2019-04-03T01:16:34.066Z,1999.90
2019-04-03T01:21:37.843Z,1999.90
2019-04-03T01:26:41.670Z,1999.90
2019-04-03T01:31:45.370Z,1999.90
2019-04-03T01:36:49.211Z,1999.90
2019-04-03T01:41:59.007Z,1999.90
2019-04-03T01:47:02.989Z,1999.90
2019-04-03T01:52:06.694Z,1999.90
2019-04-03T01:57:10.463Z,1999.90
2019-04-03T02:02:14.234Z,1999.90
2019-04-03T02:07:17.958Z,1999.90
2019-04-03T02:12:21.769Z,1999.90
2019-04-03T02:17:25.495Z,1999.90
2019-04-03T02:22:29.875Z,1999.90
2019-04-03T02:27:33.886Z,1999.90
2019-04-03T02:32:37.688Z,1999.90
2019-04-03T02:37:41.392Z,1999.90
2019-04-03T02:42:45.125Z,1999.90
2019-04-03T02:47:48.909Z,1999.90
2019-04-03T02:52:56.900Z,1999.90
2019-04-03T02:57:58.543Z,1999.90
2019-04-03T03:03:02.813Z,1999.90
2019-04-03T03:08:09.432Z,1999.90
2019-04-03T03:13:13.128Z,1999.90
2019-04-03T03:18:17.721Z,1999.90
2019-04-03T03:23:23.097Z,1999.90
2019-04-03T03:28:28.371Z,1999.90
2019-04-03T03:33:37.335Z,1999.90
2019-04-03T03:38:40.125Z,1999.90
2019-04-03T03:43:46.284Z,1999.90
2019-04-03T03:48:50.610Z,1999.90
2019-04-03T03:53:54.703Z,1999.90
2019-04-03T03:58:58.949Z,1999.90
2019-04-03T04:04:03.250Z,1999.90
2019-04-03T04:09:08.397Z,1999.90
2019-04-03T04:14:12.703Z,1999.90
2019-04-03T04:19:16.786Z,1999.90
2019-04-03T04:24:20.595Z,1999.90
2019-04-03T04:29:30.658Z,1999.90
2019-04-03T04:34:34.359Z,1999.90
2019-04-03T04:39:38.095Z,1999.90
2019-04-03T04:44:41.799Z,1999.90
2019-04-03T04:49:45.604Z,1859.30
2019-04-03T04:54:49.406Z,1679.23
2019-04-03T04:59:53.190Z,1760.43
2019-04-03T05:04:56.923Z,1999.90
2019-04-03T05:10:00.668Z,1999.90
2019-04-03T05:15:04.870Z,1999.90
2019-04-03T05:20:08.942Z,1999.90
2019-04-03T05:25:12.737Z,1999.90
2019-04-03T05:30:29.351Z,1999.90
2019-04-03T05:35:33.264Z,1999.90
2019-04-03T05:40:37.775Z,1999.90
2019-04-03T05:45:42.230Z,1999.90
2019-04-03T05:50:46.439Z,1999.90
2019-04-03T05:55:50.278Z,1999.90
2019-04-03T06:01:04.473Z,1999.90
2019-04-03T06:05:59.747Z,1999.90
2019-04-03T06:11:05.799Z,1999.90
2019-04-03T06:16:09.210Z,1999.90
2019-04-03T06:21:14.934Z,1999.90
2019-04-03T06:26:18.370Z,1999.90
2019-04-03T06:31:22.362Z,1999.90
2019-04-03T06:36:26.086Z,1999.90
2019-04-03T06:41:29.829Z,1999.90
2019-04-03T06:46:33.583Z,1999.90
2019-04-03T06:51:37.334Z,1999.90
2019-04-03T06:56:41.290Z,1999.90
2019-04-03T07:01:45.180Z,1999.90
2019-04-03T07:06:48.919Z,1839.13
2019-04-03T07:11:52.655Z,1736.20
2019-04-03T07:16:56.611Z,841.70
2019-04-03T07:22:00.615Z,696.13
2019-04-03T07:27:06.076Z,659.20
2019-04-03T07:32:09.934Z,226.83
2019-04-03T07:37:15.353Z,237.03
2019-04-03T07:42:19.103Z,547.63
2019-04-03T07:47:22.871Z,387.93
2019-04-03T07:52:26.893Z,175.03
2019-04-03T07:57:30.670Z,157.50
2019-04-03T08:02:35.475Z,136.83
2019-04-03T08:07:39.327Z,129.77
2019-04-03T08:12:43.379Z,132.07
2019-04-03T08:17:47.825Z,134.47
2019-04-03T08:22:52.739Z,143.63
2019-04-03T08:27:56.507Z,133.37
2019-04-03T08:33:00.207Z,138.17
2019-04-03T08:38:04.086Z,131.80
2019-04-03T08:43:07.880Z,148.80
2019-04-03T08:48:11.626Z,135.37
2019-04-03T08:53:15.651Z,138.83
2019-04-03T08:58:21.503Z,138.57
2019-04-03T09:03:25.053Z,138.70
2019-04-03T09:08:28.862Z,138.90
2019-04-03T09:13:32.878Z,164.83
2019-04-03T09:18:38.345Z,140.47
2019-04-03T09:23:42.196Z,145.03
2019-04-03T09:28:46.013Z,134.83
2019-04-03T09:33:49.751Z,142.10
2019-04-03T09:38:53.507Z,144.50
2019-04-03T09:43:57.310Z,146.20
2019-04-03T09:49:01.277Z,143.87
2019-04-03T09:54:05.363Z,142.37
2019-04-03T09:59:09.390Z,134.10
2019-04-03T10:04:13.347Z,163.07
2019-04-03T10:09:17.087Z,141.90
2019-04-03T10:14:20.834Z,144.90
2019-04-03T10:19:24.564Z,146.47
2019-04-03T10:24:30.433Z,139.57
2019-04-03T10:29:33.707Z,161.00
2019-04-03T10:34:37.881Z,166.47
2019-04-03T10:39:44.465Z,171.00
2019-04-03T10:44:47.914Z,156.93
2019-04-03T10:49:51.642Z,163.63
2019-04-03T10:54:56.836Z,146.80
2019-04-03T11:00:01.097Z,232.33
2019-04-03T11:05:06.235Z,147.00
2019-04-03T11:10:11.136Z,146.30
2019-04-03T11:15:15.803Z,251.90
2019-04-03T11:20:19.877Z,173.07
2019-04-03T11:25:23.751Z,416.77
2019-04-03T11:30:27.743Z,197.37
2019-04-03T11:35:31.650Z,457.30
2019-04-03T11:40:35.776Z,156.00
2019-04-03T11:45:39.753Z,149.73
2019-04-03T11:50:44.342Z,156.87
2019-04-03T11:55:48.733Z,159.70
2019-04-03T12:00:53.177Z,168.50
2019-04-03T12:05:56.967Z,653.97
2019-04-03T12:11:00.993Z,187.37
2019-04-03T12:16:05.039Z,158.37
2019-04-03T12:21:10.659Z,142.50
2019-04-03T12:26:14.409Z,171.87
2019-04-03T12:31:18.283Z,158.10
2019-04-03T12:36:22.394Z,144.20
2019-04-03T12:41:27.825Z,160.80
2019-04-03T12:46:40.726Z,180.93
2019-04-03T12:51:43.540Z,145.93
2019-04-03T12:56:47.310Z,156.27
2019-04-03T13:01:51.082Z,177.13
2019-04-03T13:06:54.851Z,175.63
2019-04-03T13:11:58.561Z,141.87
2019-04-03T13:17:02.594Z,139.67
2019-04-03T13:22:06.394Z,143.03
2019-04-03T13:27:10.298Z,306.40
2019-04-03T13:32:16.452Z,191.57
2019-04-03T13:37:22.084Z,162.07
2019-04-03T13:42:25.339Z,156.70
2019-04-03T13:47:29.092Z,205.23
2019-04-03T13:52:40.031Z,146.93
2019-04-03T13:57:38.705Z,217.63
2019-04-03T14:02:44.952Z,162.07
2019-04-03T14:07:53.775Z,149.07
2019-04-03T14:12:58.087Z,156.57
2019-04-03T14:18:02.301Z,159.13
2019-04-03T14:23:06.027Z,147.23
2019-04-03T14:28:09.752Z,177.20
2019-04-03T14:33:13.582Z,140.97
2019-04-03T14:38:17.767Z,152.73
2019-04-03T14:43:22.316Z,139.70
2019-04-03T14:48:27.557Z,133.70
2019-04-03T14:53:31.315Z,140.40
2019-04-03T14:58:35.069Z,134.43
2019-04-03T15:03:39.181Z,133.13
2019-04-03T15:08:42.921Z,221.20
2019-04-03T15:13:48.881Z,137.90
2019-04-03T15:18:52.459Z,142.97
2019-04-03T15:23:56.546Z,135.07
2019-04-03T15:29:02.173Z,148.73
2019-04-03T15:34:06.428Z,148.53
2019-04-03T15:39:16.422Z,137.03
2019-04-03T15:44:21.018Z,136.63
2019-04-03T15:49:27.059Z,146.47
2019-04-03T15:54:33.051Z,147.50
2019-04-03T15:59:36.900Z,141.63
2019-04-03T16:04:40.792Z,135.90
2019-04-03T16:09:44.704Z,139.27
2019-04-03T16:14:51.144Z,146.03
2019-04-03T16:19:54.382Z,148.30
2019-04-03T16:24:58.085Z,263.03
2019-04-03T16:30:01.817Z,211.20
2019-04-03T16:35:06.241Z,249.70
2019-04-03T16:40:11.204Z,179.67
2019-04-03T16:45:15.373Z,137.97
2019-04-03T16:50:19.941Z,148.90
2019-04-03T16:55:27.347Z,146.10
2019-04-03T17:00:32.531Z,154.23
2019-04-03T17:05:37.372Z,251.67
2019-04-03T17:10:42.434Z,468.57
2019-04-03T17:15:46.664Z,719.33
2019-04-03T17:20:51.082Z,997.50
2019-04-03T17:25:55.212Z,1289.30
2019-04-03T17:30:59.055Z,1999.90
2019-04-03T17:36:02.806Z,1999.90
2019-04-03T17:41:07.033Z,1999.90
2019-04-03T17:46:11.462Z,1999.90
2019-04-03T17:51:15.400Z,1999.90
2019-04-03T17:56:20.201Z,1999.90
2019-04-03T18:01:24.130Z,1999.90
2019-04-03T18:06:27.984Z,1999.90
2019-04-03T18:11:31.767Z,1999.90
2019-04-03T18:16:35.570Z,1999.90
2019-04-03T18:21:39.496Z,1999.90
2019-04-03T18:26:44.997Z,1999.90
2019-04-03T18:31:48.825Z,1999.90
2019-04-03T18:36:52.628Z,1999.90
2019-04-03T18:41:56.335Z,1999.90
2019-04-03T18:47:00.062Z,1999.90
2019-04-03T18:52:04.231Z,1999.90
2019-04-03T18:57:08.339Z,1999.90
2019-04-03T19:02:12.195Z,1999.90
2019-04-03T19:07:16.083Z,1999.90
2019-04-03T19:12:19.786Z,1999.90
2019-04-03T19:17:24.834Z,1999.90
2019-04-03T19:22:31.220Z,1999.90
2019-04-03T19:27:35.009Z,1999.90
2019-04-03T19:32:38.752Z,1999.90
2019-04-03T19:37:45.039Z,1999.90
2019-04-03T19:42:48.943Z,1999.90
2019-04-03T19:47:54.554Z,1999.90
2019-04-03T19:52:58.298Z,1999.90
2019-04-03T19:58:02.338Z,1999.90
2019-04-03T20:03:06.071Z,1999.90
2019-04-03T20:08:10.143Z,1999.90
2019-04-03T20:13:13.892Z,1999.90
2019-04-03T20:18:17.658Z,1999.90
2019-04-03T20:23:21.433Z,1999.90
2019-04-03T20:28:25.180Z,1999.90
2019-04-03T20:33:29.198Z,1999.90
2019-04-03T20:38:33.040Z,1999.90
2019-04-03T20:43:36.887Z,1999.90
2019-04-03T20:48:40.607Z,1999.90
2019-04-03T20:53:45.639Z,1999.90
2019-04-03T20:58:55.845Z,1999.90
2019-04-03T21:03:55.507Z,1999.90
2019-04-03T21:08:59.603Z,1999.90
2019-04-03T21:14:05.588Z,1999.90
2019-04-03T21:19:09.115Z,1999.90
2019-04-03T21:24:12.827Z,1999.90
2019-04-03T21:29:17.456Z,1999.90
2019-04-03T21:34:21.239Z,1999.90
2019-04-03T21:39:24.963Z,1999.90
2019-04-03T21:44:29.997Z,1467.27
2019-04-03T21:49:34.172Z,1331.60
2019-04-03T21:54:37.907Z,1937.93
2019-04-03T21:59:42.896Z,1440.30
2019-04-03T22:04:47.367Z,1670.43
2019-04-03T22:09:51.082Z,1644.50
2019-04-03T22:14:54.793Z,1990.43
2019-04-03T22:19:59.259Z,1999.90
2019-04-03T22:25:03.207Z,1999.90
2019-04-03T22:30:07.527Z,1999.90
2019-04-03T22:35:12.300Z,1999.90
2019-04-03T22:40:16.290Z,1999.90
2019-04-03T22:45:20.602Z,1999.90
2019-04-03T22:50:24.845Z,1999.90
2019-04-03T22:55:28.717Z,1999.90
2019-04-03T23:00:34.871Z,1999.90
2019-04-03T23:05:38.614Z,1999.90
2019-04-03T23:10:42.588Z,1999.90
2019-04-03T23:15:46.287Z,1999.90
2019-04-03T23:20:52.528Z,1999.90
2019-04-03T23:25:55.628Z,1999.90
2019-04-03T23:30:59.341Z,1999.90
2019-04-03T23:36:03.124Z,1999.90
2019-04-03T23:41:06.846Z,1999.90
2019-04-03T23:46:10.598Z,1999.90
2019-04-03T23:51:23.171Z,1999.90
2019-04-03T23:56:19.753Z,1999.90
